sensor_id;sensor_type;location;lat;lon;timestamp;P1;durP1;ratioP1;P2;durP2;ratioP2
74457;SDS011;62896;51.032;3.712;2022-11-04T09:38:30;12.3;;;4.8;;
74457;SDS011;62896;51.032;3.712;2022-11-04T09:41:55;12.3;;;4.8;;
74457;SDS011;62896;51.032;3.712;2022-11-04T09:45:10;12.3;;;4.8;;
74457;SDS011;62896;51.032;3.712;2022-11-04T09:48:31;12.3;;;4.8;;
74457;SDS011;62896;51.032;3.712;2022-11-04T09:51:49;12.3;;;4.8;;
74457;SDS011;62896;51.032;3.712;2022-11-04T09:55:11;12.3;;;4.8;;
74457;SDS011;62896;51.032;3.712;2022-11-04T09:58:31;12.3;;;4.8;;
74457;SDS011;62896;51.032;3.712;2022-11-04T10:01:52;12.3;;;4.8;;
74457;SDS011;62896;51.032;3.712;2022-11-04T10:05:14;11.4;;;4.5;;
74457;SDS011;62896;51.032;3.712;2022-11-04T10:08:33;11.4;;;4.5;;
74457;SDS011;62896;51.032;3.712;2022-11-04T10:11:53;11.4;;;4.5;;
74457;SDS011;62896;51.032;3.712;2022-11-04T10:15:12;11.4;;;4.5;;
74457;SDS011;62896;51.032;3.712;2022-11-04T10:18:34;11.4;;;4.5;;
74457;SDS011;62896;51.032;3.712;2022-11-04T10:21:53;11.4;;;4.5;;
74457;SDS011;62896;51.032;3.712;2022-11-04T10:25:12;11.4;;;4.5;;
74457;SDS011;62896;51.032;3.712;2022-11-04T10:28:32;12.1;;;5.7;;
74457;SDS011;62896;51.032;3.712;2022-11-04T10:31:50;12.1;;;5.7;;
74457;SDS011;62896;51.032;3.712;2022-11-04T10:35:13;12.1;;;5.7;;
74457;SDS011;62896;51.032;3.712;2022-11-04T10:38:32;12.1;;;5.7;;
74457;SDS011;62896;51.032;3.712;2022-11-04T10:41:50;12.1;;;5.7;;
74457;SDS011;62896;51.032;3.712;2022-11-04T10:45:10;12.1;;;5.7;;
74457;SDS011;62896;51.032;3.712;2022-11-04T10:48:31;12.1;;;5.7;;
74457;SDS011;62896;51.032;3.712;2022-11-04T10:51:50;12.1;;;5.7;;
74457;SDS011;62896;51.032;3.712;2022-11-04T10:55:11;9.9;;;5.9;;
74457;SDS011;62896;51.032;3.712;2022-11-04T10:58:31;9.9;;;5.9;;
74457;SDS011;62896;51.032;3.712;2022-11-04T11:01:50;9.9;;;5.9;;
74457;SDS011;62896;51.032;3.712;2022-11-04T11:05:11;9.9;;;5.9;;
74457;SDS011;62896;51.032;3.712;2022-11-04T11:08:30;9.9;;;5.9;;
74457;SDS011;62896;51.032;3.712;2022-11-04T11:11:50;9.9;;;5.9;;
74457;SDS011;62896;51.032;3.712;2022-11-04T11:15:16;9.9;;;5.9;;
74457;SDS011;62896;51.032;3.712;2022-11-04T11:18:30;12.8;;;7.2;;
74457;SDS011;62896;51.032;3.712;2022-11-04T11:21:50;12.8;;;7.2;;
74457;SDS011;62896;51.032;3.712;2022-11-04T11:25:12;12.8;;;7.2;;
74457;SDS011;62896;51.032;3.712;2022-11-04T11:28:30;12.8;;;7.2;;
74457;SDS011;62896;51.032;3.712;2022-11-04T11:31:50;12.8;;;7.2;;
74457;SDS011;62896;51.032;3.712;2022-11-04T11:35:13;12.8;;;7.2;;
74457;SDS011;62896;51.032;3.712;2022-11-04T11:38:30;12.8;;;7.2;;
74457;SDS011;62896;51.032;3.712;2022-11-04T11:41:51;12.8;;;7.2;;
74457;SDS011;62896;51.032;3.712;2022-11-04T11:45:12;10.4;;;5;;
74457;SDS011;62896;51.032;3.712;2022-11-04T11:48:30;10.4;;;5;;
74457;SDS011;62896;51.032;3.712;2022-11-04T11:51:50;10.4;;;5;;
74457;SDS011;62896;51.032;3.712;2022-11-04T11:55:10;10.4;;;5;;
74457;SDS011;62896;51.032;3.712;2022-11-04T11:58:31;10.4;;;5;;
74457;SDS011;62896;51.032;3.712;2022-11-04T12:01:50;10.4;;;5;;
74457;SDS011;62896;51.032;3.712;2022-11-04T12:05:10;10.4;;;5;;
74457;SDS011;62896;51.032;3.712;2022-11-04T12:08:33;10.5;;;4;;
74457;SDS011;62896;51.032;3.712;2022-11-04T12:11:53;10.5;;;4;;
74457;SDS011;62896;51.032;3.712;2022-11-04T12:15:15;10.5;;;4;;
74457;SDS011;62896;51.032;3.712;2022-11-04T12:18:34;10.5;;;4;;
74457;SDS011;62896;51.032;3.712;2022-11-04T12:21:53;10.5;;;4;;
74457;SDS011;62896;51.032;3.712;2022-11-04T12:25:11;10.5;;;4;;
74457;SDS011;62896;51.032;3.712;2022-11-04T12:28:31;10.5;;;4;;
74457;SDS011;62896;51.032;3.712;2022-11-04T12:31:50;10.5;;;4;;
74457;SDS011;62896;51.032;3.712;2022-11-04T12:35:15;8.9;;;3.3;;
74457;SDS011;62896;51.032;3.712;2022-11-04T12:38:33;8.9;;;3.3;;
74457;SDS011;62896;51.032;3.712;2022-11-04T12:41:52;8.9;;;3.3;;
74457;SDS011;62896;51.032;3.712;2022-11-04T12:45:15;8.9;;;3.3;;
74457;SDS011;62896;51.032;3.712;2022-11-04T12:48:34;8.9;;;3.3;;
74457;SDS011;62896;51.032;3.712;2022-11-04T12:51:51;8.9;;;3.3;;
74457;SDS011;62896;51.032;3.712;2022-11-04T12:55:16;8.9;;;3.3;;
74457;SDS011;62896;51.032;3.712;2022-11-04T12:58:32;7.2;;;3;;
74457;SDS011;62896;51.032;3.712;2022-11-04T13:01:51;7.2;;;3;;
74457;SDS011;62896;51.032;3.712;2022-11-04T13:05:17;7.2;;;3;;
74457;SDS011;62896;51.032;3.712;2022-11-04T13:08:31;7.2;;;3;;
74457;SDS011;62896;51.032;3.712;2022-11-04T13:11:50;7.2;;;3;;
74457;SDS011;62896;51.032;3.712;2022-11-04T13:15:13;7.2;;;3;;
74457;SDS011;62896;51.032;3.712;2022-11-04T13:18:30;7.2;;;3;;
74457;SDS011;62896;51.032;3.712;2022-11-04T13:21:50;7.2;;;3;;
74457;SDS011;62896;51.032;3.712;2022-11-04T13:25:12;2.6;;;1.1;;
74457;SDS011;62896;51.032;3.712;2022-11-04T13:28:30;2.6;;;1.1;;
74457;SDS011;62896;51.032;3.712;2022-11-04T13:31:50;2.6;;;1.1;;
74457;SDS011;62896;51.032;3.712;2022-11-04T13:35:11;2.6;;;1.1;;
74457;SDS011;62896;51.032;3.712;2022-11-04T13:38:31;2.6;;;1.1;;
74457;SDS011;62896;51.032;3.712;2022-11-04T13:42:55;2.6;;;1.1;;
74457;SDS011;62896;51.032;3.712;2022-11-04T13:45:10;2.6;;;1.1;;
74457;SDS011;62896;51.032;3.712;2022-11-04T13:48:30;3.8;;;0.8;;
74457;SDS011;62896;51.032;3.712;2022-11-04T13:51:59;3.8;;;0.8;;
74457;SDS011;62896;51.032;3.712;2022-11-04T13:55:15;3.8;;;0.8;;
74457;SDS011;62896;51.032;3.712;2022-11-04T13:58:30;3.8;;;0.8;;
74457;SDS011;62896;51.032;3.712;2022-11-04T14:01:58;3.8;;;0.8;;
74457;SDS011;62896;51.032;3.712;2022-11-04T14:05:45;3.8;;;0.8;;
74457;SDS011;62896;51.032;3.712;2022-11-04T14:08:30;3.8;;;0.8;;
74457;SDS011;62896;51.032;3.712;2022-11-04T14:12:15;3.8;;;0.8;;
74457;SDS011;62896;51.032;3.712;2022-11-04T14:15:11;6.3;;;0.9;;
74457;SDS011;62896;51.032;3.712;2022-11-04T14:18:30;6.3;;;0.9;;
74457;SDS011;62896;51.032;3.712;2022-11-04T14:22:05;6.3;;;0.9;;
74457;SDS011;62896;51.032;3.712;2022-11-04T14:25:18;6.3;;;0.9;;
74457;SDS011;62896;51.032;3.712;2022-11-04T14:28:30;6.3;;;0.9;;
74457;SDS011;62896;51.032;3.712;2022-11-04T14:31:50;6.3;;;0.9;;
74457;SDS011;62896;51.032;3.712;2022-11-04T14:35:13;6.3;;;0.9;;
74457;SDS011;62896;51.032;3.712;2022-11-04T14:38:30;5.3;;;1;;
74457;SDS011;62896;51.032;3.712;2022-11-04T14:41:54;5.3;;;1;;
74457;SDS011;62896;51.032;3.712;2022-11-04T14:45:11;5.3;;;1;;
74457;SDS011;62896;51.032;3.712;2022-11-04T14:48:29;5.3;;;1;;
74457;SDS011;62896;51.032;3.712;2022-11-04T14:51:50;5.3;;;1;;
74457;SDS011;62896;51.032;3.712;2022-11-04T14:55:11;5.3;;;1;;
74457;SDS011;62896;51.032;3.712;2022-11-04T14:58:29;5.3;;;1;;
74457;SDS011;62896;51.032;3.712;2022-11-04T15:01:50;5.3;;;1;;
74457;SDS011;62896;51.032;3.712;2022-11-04T15:05:20;4.6;;;0.9;;
74457;SDS011;62896;51.032;3.712;2022-11-04T15:08:31;4.6;;;0.9;;
74457;SDS011;62896;51.032;3.712;2022-11-04T15:11:50;4.6;;;0.9;;
74457;SDS011;62896;51.032;3.712;2022-11-04T15:15:19;4.6;;;0.9;;
74457;SDS011;62896;51.032;3.712;2022-11-04T15:18:30;4.6;;;0.9;;
74457;SDS011;62896;51.032;3.712;2022-11-04T15:21:49;4.6;;;0.9;;
74457;SDS011;62896;51.032;3.712;2022-11-04T15:25:09;4.6;;;0.9;;
74457;SDS011;62896;51.032;3.712;2022-11-04T15:28:31;9;;;1.6;;
74457;SDS011;62896;51.032;3.712;2022-11-04T15:31:50;9;;;1.6;;
74457;SDS011;62896;51.032;3.712;2022-11-04T15:35:10;9;;;1.6;;
74457;SDS011;62896;51.032;3.712;2022-11-04T15:38:29;9;;;1.6;;
74457;SDS011;62896;51.032;3.712;2022-11-04T15:41:51;9;;;1.6;;
74457;SDS011;62896;51.032;3.712;2022-11-04T15:45:24;9;;;1.6;;
74457;SDS011;62896;51.032;3.712;2022-11-04T15:48:30;9;;;1.6;;
74457;SDS011;62896;51.032;3.712;2022-11-04T15:51:50;9;;;1.6;;
74457;SDS011;62896;51.032;3.712;2022-11-04T15:55:17;6.5;;;2;;
74457;SDS011;62896;51.032;3.712;2022-11-04T15:58:29;6.5;;;2;;
74457;SDS011;62896;51.032;3.712;2022-11-04T16:01:50;6.5;;;2;;
74457;SDS011;62896;51.032;3.712;2022-11-04T16:05:19;6.5;;;2;;
74457;SDS011;62896;51.032;3.712;2022-11-04T16:08:30;6.5;;;2;;
74457;SDS011;62896;51.032;3.712;2022-11-04T16:12:06;6.5;;;2;;
74457;SDS011;62896;51.032;3.712;2022-11-04T16:15:28;6.5;;;2;;
74457;SDS011;62896;51.032;3.712;2022-11-04T16:18:32;8;;;2.3;;
74457;SDS011;62896;51.032;3.712;2022-11-04T16:21:57;8;;;2.3;;
74457;SDS011;62896;51.032;3.712;2022-11-04T16:25:17;8;;;2.3;;
74457;SDS011;62896;51.032;3.712;2022-11-04T16:28:30;8;;;2.3;;
74457;SDS011;62896;51.032;3.712;2022-11-04T16:32:06;8;;;2.3;;
74457;SDS011;62896;51.032;3.712;2022-11-04T16:35:12;8;;;2.3;;
74457;SDS011;62896;51.032;3.712;2022-11-04T16:38:29;8;;;2.3;;
74457;SDS011;62896;51.032;3.712;2022-11-04T16:41:49;8;;;2.3;;
74457;SDS011;62896;51.032;3.712;2022-11-04T16:45:15;6.8;;;2.7;;
74457;SDS011;62896;51.032;3.712;2022-11-04T16:48:29;6.8;;;2.7;;
74457;SDS011;62896;51.032;3.712;2022-11-04T16:51:49;6.8;;;2.7;;
74457;SDS011;62896;51.032;3.712;2022-11-04T16:55:10;6.8;;;2.7;;
74457;SDS011;62896;51.032;3.712;2022-11-04T16:58:29;6.8;;;2.7;;
74457;SDS011;62896;51.032;3.712;2022-11-04T17:01:49;6.8;;;2.7;;
74457;SDS011;62896;51.032;3.712;2022-11-04T17:05:09;6.8;;;2.7;;
74457;SDS011;62896;51.032;3.712;2022-11-04T17:08:29;14.3;;;3.7;;
74457;SDS011;62896;51.032;3.712;2022-11-04T17:35:09;13.2;;;6.1;;
74457;SDS011;62896;51.032;3.712;2022-11-04T17:38:29;13.2;;;6.1;;
74457;SDS011;62896;51.032;3.712;2022-11-04T17:41:49;13.2;;;6.1;;
74457;SDS011;62896;51.032;3.712;2022-11-04T17:45:09;13.2;;;6.1;;
74457;SDS011;62896;51.032;3.712;2022-11-04T17:48:29;13.2;;;6.1;;
74457;SDS011;62896;51.032;3.712;2022-11-04T17:51:49;13.2;;;6.1;;
74457;SDS011;62896;51.032;3.712;2022-11-04T17:55:09;13.2;;;6.1;;
74457;SDS011;62896;51.032;3.712;2022-11-04T17:58:29;17.2;;;7.1;;
74457;SDS011;62896;51.032;3.712;2022-11-04T18:01:49;17.2;;;7.1;;
74457;SDS011;62896;51.032;3.712;2022-11-04T18:05:09;17.2;;;7.1;;
74457;SDS011;62896;51.032;3.712;2022-11-04T18:08:29;17.2;;;7.1;;
74457;SDS011;62896;51.032;3.712;2022-11-04T18:11:49;17.2;;;7.1;;
74457;SDS011;62896;51.032;3.712;2022-11-04T18:15:10;17.2;;;7.1;;
74457;SDS011;62896;51.032;3.712;2022-11-04T18:18:29;17.2;;;7.1;;
74457;SDS011;62896;51.032;3.712;2022-11-04T18:21:49;17.2;;;7.1;;
74457;SDS011;62896;51.032;3.712;2022-11-04T18:25:09;16.5;;;6.1;;
74457;SDS011;62896;51.032;3.712;2022-11-04T18:28:29;16.5;;;6.1;;
74457;SDS011;62896;51.032;3.712;2022-11-04T18:31:49;16.5;;;6.1;;
74457;SDS011;62896;51.032;3.712;2022-11-04T18:35:09;16.5;;;6.1;;
74457;SDS011;62896;51.032;3.712;2022-11-04T18:38:29;16.5;;;6.1;;
74457;SDS011;62896;51.032;3.712;2022-11-04T18:41:49;16.5;;;6.1;;
74457;SDS011;62896;51.032;3.712;2022-11-04T18:45:09;16.5;;;6.1;;
74457;SDS011;62896;51.032;3.712;2022-11-04T18:48:29;11.4;;;5.9;;
74457;SDS011;62896;51.032;3.712;2022-11-04T18:51:49;11.4;;;5.9;;
74457;SDS011;62896;51.032;3.712;2022-11-04T18:55:09;11.4;;;5.9;;
74457;SDS011;62896;51.032;3.712;2022-11-04T18:58:30;11.4;;;5.9;;
74457;SDS011;62896;51.032;3.712;2022-11-04T19:01:49;11.4;;;5.9;;
74457;SDS011;62896;51.032;3.712;2022-11-04T19:05:09;11.4;;;5.9;;
74457;SDS011;62896;51.032;3.712;2022-11-04T19:08:29;11.4;;;5.9;;
74457;SDS011;62896;51.032;3.712;2022-11-04T19:11:49;11.4;;;5.9;;
74457;SDS011;62896;51.032;3.712;2022-11-04T19:15:09;18.7;;;8.5;;
74457;SDS011;62896;51.032;3.712;2022-11-04T19:18:29;18.7;;;8.5;;
74457;SDS011;62896;51.032;3.712;2022-11-04T19:21:49;18.7;;;8.5;;
74457;SDS011;62896;51.032;3.712;2022-11-04T19:25:09;18.7;;;8.5;;
74457;SDS011;62896;51.032;3.712;2022-11-04T19:28:29;18.7;;;8.5;;
74457;SDS011;62896;51.032;3.712;2022-11-04T19:31:49;18.7;;;8.5;;
74457;SDS011;62896;51.032;3.712;2022-11-04T19:35:09;18.7;;;8.5;;
74457;SDS011;62896;51.032;3.712;2022-11-04T19:38:29;13.9;;;8.3;;
74457;SDS011;62896;51.032;3.712;2022-11-04T19:41:49;13.9;;;8.3;;
74457;SDS011;62896;51.032;3.712;2022-11-04T19:45:09;13.9;;;8.3;;
74457;SDS011;62896;51.032;3.712;2022-11-04T19:48:29;13.9;;;8.3;;
74457;SDS011;62896;51.032;3.712;2022-11-04T19:51:49;13.9;;;8.3;;
74457;SDS011;62896;51.032;3.712;2022-11-04T19:55:09;13.9;;;8.3;;
74457;SDS011;62896;51.032;3.712;2022-11-04T19:58:29;13.9;;;8.3;;
74457;SDS011;62896;51.032;3.712;2022-11-04T20:01:49;13.9;;;8.3;;
74457;SDS011;62896;51.032;3.712;2022-11-04T20:05:09;10.2;;;6.4;;
74457;SDS011;62896;51.032;3.712;2022-11-04T20:08:29;10.2;;;6.4;;
74457;SDS011;62896;51.032;3.712;2022-11-04T20:11:49;10.2;;;6.4;;
74457;SDS011;62896;51.032;3.712;2022-11-04T20:15:09;10.2;;;6.4;;
74457;SDS011;62896;51.032;3.712;2022-11-04T20:18:29;10.2;;;6.4;;
74457;SDS011;62896;51.032;3.712;2022-11-04T20:21:49;10.2;;;6.4;;
74457;SDS011;62896;51.032;3.712;2022-11-04T20:25:09;10.2;;;6.4;;
74457;SDS011;62896;51.032;3.712;2022-11-04T20:28:29;9.3;;;5.6;;
74457;SDS011;62896;51.032;3.712;2022-11-04T20:31:50;9.3;;;5.6;;
74457;SDS011;62896;51.032;3.712;2022-11-04T20:35:09;9.3;;;5.6;;
74457;SDS011;62896;51.032;3.712;2022-11-04T20:38:29;9.3;;;5.6;;
74457;SDS011;62896;51.032;3.712;2022-11-04T20:41:49;9.3;;;5.6;;
74457;SDS011;62896;51.032;3.712;2022-11-04T20:45:09;9.3;;;5.6;;
74457;SDS011;62896;51.032;3.712;2022-11-04T20:48:29;9.3;;;5.6;;
74457;SDS011;62896;51.032;3.712;2022-11-04T20:51:49;9.3;;;5.6;;
74457;SDS011;62896;51.032;3.712;2022-11-04T20:55:09;12.7;;;5.8;;
74457;SDS011;62896;51.032;3.712;2022-11-04T20:58:29;12.7;;;5.8;;
74457;SDS011;62896;51.032;3.712;2022-11-04T21:01:49;12.7;;;5.8;;
74457;SDS011;62896;51.032;3.712;2022-11-04T21:05:09;12.7;;;5.8;;
74457;SDS011;62896;51.032;3.712;2022-11-04T21:08:31;12.7;;;5.8;;
74457;SDS011;62896;51.032;3.712;2022-11-04T21:11:49;12.7;;;5.8;;
74457;SDS011;62896;51.032;3.712;2022-11-04T21:15:09;12.7;;;5.8;;
74457;SDS011;62896;51.032;3.712;2022-11-04T21:18:29;13;;;5.3;;
74457;SDS011;62896;51.032;3.712;2022-11-04T21:21:49;13;;;5.3;;
74457;SDS011;62896;51.032;3.712;2022-11-04T21:25:09;13;;;5.3;;
74457;SDS011;62896;51.032;3.712;2022-11-04T21:28:29;13;;;5.3;;
74457;SDS011;62896;51.032;3.712;2022-11-04T21:31:49;13;;;5.3;;
74457;SDS011;62896;51.032;3.712;2022-11-04T21:35:09;13;;;5.3;;
74457;SDS011;62896;51.032;3.712;2022-11-04T21:38:29;13;;;5.3;;
74457;SDS011;62896;51.032;3.712;2022-11-04T21:41:49;13;;;5.3;;
74457;SDS011;62896;51.032;3.712;2022-11-04T21:45:09;19.9;;;9.4;;
74457;SDS011;62896;51.032;3.712;2022-11-04T21:48:29;19.9;;;9.4;;
74457;SDS011;62896;51.032;3.712;2022-11-04T21:51:49;19.9;;;9.4;;
74457;SDS011;62896;51.032;3.712;2022-11-04T21:55:09;19.9;;;9.4;;
74457;SDS011;62896;51.032;3.712;2022-11-04T21:58:29;19.9;;;9.4;;
74457;SDS011;62896;51.032;3.712;2022-11-04T22:01:49;19.9;;;9.4;;
74457;SDS011;62896;51.032;3.712;2022-11-04T22:05:09;19.9;;;9.4;;
74457;SDS011;62896;51.032;3.712;2022-11-04T22:08:29;19;;;9.9;;
74457;SDS011;62896;51.032;3.712;2022-11-04T22:11:49;19;;;9.9;;
74457;SDS011;62896;51.032;3.712;2022-11-04T22:15:09;19;;;9.9;;
74457;SDS011;62896;51.032;3.712;2022-11-04T22:18:29;19;;;9.9;;
74457;SDS011;62896;51.032;3.712;2022-11-04T22:21:49;19;;;9.9;;
74457;SDS011;62896;51.032;3.712;2022-11-04T22:25:09;19;;;9.9;;
74457;SDS011;62896;51.032;3.712;2022-11-04T22:28:29;19;;;9.9;;
74457;SDS011;62896;51.032;3.712;2022-11-04T22:31:49;19;;;9.9;;
74457;SDS011;62896;51.032;3.712;2022-11-04T22:35:09;18.2;;;9.5;;
74457;SDS011;62896;51.032;3.712;2022-11-04T22:38:29;18.2;;;9.5;;
74457;SDS011;62896;51.032;3.712;2022-11-04T22:41:49;18.2;;;9.5;;
74457;SDS011;62896;51.032;3.712;2022-11-04T22:45:09;18.2;;;9.5;;
74457;SDS011;62896;51.032;3.712;2022-11-04T22:48:29;18.2;;;9.5;;
74457;SDS011;62896;51.032;3.712;2022-11-04T22:51:49;18.2;;;9.5;;
74457;SDS011;62896;51.032;3.712;2022-11-04T22:55:09;18.2;;;9.5;;
74457;SDS011;62896;51.032;3.712;2022-11-04T22:58:29;39.7;;;18.9;;
74457;SDS011;62896;51.032;3.712;2022-11-04T23:01:49;39.7;;;18.9;;
74457;SDS011;62896;51.032;3.712;2022-11-04T23:05:09;39.7;;;18.9;;
74457;SDS011;62896;51.032;3.712;2022-11-04T23:08:30;39.7;;;18.9;;
74457;SDS011;62896;51.032;3.712;2022-11-04T23:11:49;39.7;;;18.9;;
74457;SDS011;62896;51.032;3.712;2022-11-04T23:15:09;39.7;;;18.9;;
74457;SDS011;62896;51.032;3.712;2022-11-04T23:18:29;39.7;;;18.9;;
74457;SDS011;62896;51.032;3.712;2022-11-04T23:21:49;39.7;;;18.9;;
74457;SDS011;62896;51.032;3.712;2022-11-04T23:25:09;24.8;;;13.9;;
74457;SDS011;62896;51.032;3.712;2022-11-04T23:28:29;24.8;;;13.9;;
74457;SDS011;62896;51.032;3.712;2022-11-04T23:31:49;24.8;;;13.9;;
74457;SDS011;62896;51.032;3.712;2022-11-04T23:35:09;24.8;;;13.9;;
74457;SDS011;62896;51.032;3.712;2022-11-04T23:38:29;24.8;;;13.9;;
74457;SDS011;62896;51.032;3.712;2022-11-04T23:41:49;24.8;;;13.9;;
74457;SDS011;62896;51.032;3.712;2022-11-04T23:45:09;24.8;;;13.9;;
74457;SDS011;62896;51.032;3.712;2022-11-04T23:48:29;17.5;;;8.6;;
74457;SDS011;62896;51.032;3.712;2022-11-04T23:51:49;17.5;;;8.6;;
74457;SDS011;62896;51.032;3.712;2022-11-04T23:55:09;17.5;;;8.6;;
74457;SDS011;62896;51.032;3.712;2022-11-04T23:58:29;17.5;;;8.6;;
